createdAt,value
2023-04-21T00:00:09.030Z,22.17
2023-04-21T00:02:42.407Z,20.33
2023-04-21T00:05:11.095Z,19.15
2023-04-21T00:07:39.582Z,18.10
2023-04-21T00:10:08.217Z,17.15
2023-04-21T00:12:35.435Z,20.70
2023-04-21T00:15:03.017Z,17.58
2023-04-21T00:17:30.084Z,20.17
2023-04-21T00:19:58.679Z,17.52
2023-04-21T00:22:25.810Z,20.33
2023-04-21T00:24:52.905Z,19.65
2023-04-21T00:27:19.917Z,20.98
2023-04-21T00:29:48.942Z,20.35
2023-04-21T00:32:16.468Z,18.33
2023-04-21T00:34:43.621Z,19.40
2023-04-21T00:37:12.364Z,18.48
2023-04-21T00:39:39.941Z,18.45
2023-04-21T00:42:07.046Z,18.30
2023-04-21T00:44:35.762Z,26.63
2023-04-21T00:47:03.996Z,16.98
2023-04-21T00:49:31.240Z,17.55
2023-04-21T00:51:58.758Z,17.88
2023-04-21T00:54:28.586Z,20.90
2023-04-21T00:56:58.584Z,24.33
2023-04-21T00:59:28.296Z,19.98
2023-04-21T01:01:57.256Z,17.60
2023-04-21T01:04:24.390Z,22.67
2023-04-21T01:06:52.262Z,17.38
2023-04-21T01:09:19.774Z,19.80
2023-04-21T01:12:06.168Z,18.10
2023-04-21T01:14:35.774Z,20.77
2023-04-21T01:17:08.079Z,20.57
2023-04-21T01:19:42.059Z,17.30
2023-04-21T01:22:13.217Z,22.50
2023-04-21T01:24:47.600Z,17.73
2023-04-21T01:27:19.920Z,20.00
2023-04-21T01:29:51.916Z,19.13
2023-04-21T01:32:21.797Z,17.65
2023-04-21T01:34:50.311Z,21.15
2023-04-21T01:37:20.793Z,20.40
2023-04-21T01:39:54.577Z,21.63
2023-04-21T01:42:24.645Z,18.55
2023-04-21T01:44:54.107Z,21.20
2023-04-21T01:47:21.927Z,17.70
2023-04-21T01:49:48.984Z,20.77
2023-04-21T01:52:16.433Z,17.67
2023-04-21T01:54:43.543Z,18.85
2023-04-21T01:57:11.258Z,18.15
2023-04-21T01:59:38.616Z,17.95
2023-04-21T02:02:05.860Z,17.08
2023-04-21T02:04:34.363Z,18.77
2023-04-21T02:07:01.972Z,19.00
2023-04-21T02:09:29.066Z,18.73
2023-04-21T02:11:57.337Z,20.70
2023-04-21T02:14:27.546Z,20.02
2023-04-21T02:16:56.430Z,18.90
2023-04-21T02:19:24.378Z,19.83
2023-04-21T02:21:51.424Z,15.73
2023-04-21T02:24:22.410Z,16.73
2023-04-21T02:26:49.476Z,18.92
2023-04-21T02:29:16.940Z,18.77
2023-04-21T02:31:57.910Z,17.42
2023-04-21T02:34:30.525Z,21.63
2023-04-21T02:36:57.880Z,18.40
2023-04-21T02:39:26.595Z,17.52
2023-04-21T02:41:53.569Z,17.23
2023-04-21T02:44:21.348Z,16.13
2023-04-21T02:46:48.464Z,18.15
2023-04-21T02:49:15.523Z,16.80
2023-04-21T02:51:42.615Z,18.73
2023-04-21T02:54:09.691Z,18.17
2023-04-21T02:56:36.798Z,19.63
2023-04-21T02:59:03.888Z,17.38
2023-04-21T03:01:30.917Z,16.20
2023-04-21T03:03:58.107Z,22.20
2023-04-21T03:06:25.454Z,16.23
2023-04-21T03:08:52.478Z,19.38
2023-04-21T03:11:19.510Z,19.77
2023-04-21T03:13:46.478Z,19.50
2023-04-21T03:16:13.750Z,17.63
2023-04-21T03:18:44.248Z,17.17
2023-04-21T03:21:12.315Z,18.92
2023-04-21T03:23:39.490Z,15.45
2023-04-21T03:26:10.069Z,19.98
2023-04-21T03:28:37.147Z,19.48
2023-04-21T03:31:04.192Z,18.85
2023-04-21T03:33:31.367Z,15.82
2023-04-21T03:35:58.532Z,16.27
2023-04-21T03:38:25.559Z,18.05
2023-04-21T03:40:52.669Z,21.88
2023-04-21T03:43:19.720Z,18.00
2023-04-21T03:45:46.867Z,17.98
2023-04-21T03:48:13.954Z,18.63
2023-04-21T03:50:41.201Z,17.35
2023-04-21T03:53:08.229Z,22.75
2023-04-21T03:55:35.527Z,18.02
2023-04-21T03:58:02.979Z,19.30
2023-04-21T04:00:30.093Z,22.40
2023-04-21T04:02:57.302Z,16.15
2023-04-21T04:05:24.704Z,18.83
2023-04-21T04:07:51.784Z,17.38
2023-04-21T04:10:18.972Z,17.55
2023-04-21T04:12:46.035Z,19.65
2023-04-21T04:15:13.166Z,18.15
2023-04-21T04:17:40.256Z,19.60
2023-04-21T04:20:08.651Z,19.35
2023-04-21T04:22:35.972Z,17.02
2023-04-21T04:25:04.064Z,19.13
2023-04-21T04:27:31.186Z,20.50
2023-04-21T04:29:58.230Z,15.27
2023-04-21T04:32:28.591Z,17.85
2023-04-21T04:34:56.097Z,14.68
2023-04-21T04:37:23.160Z,18.02
2023-04-21T04:39:53.753Z,18.27
2023-04-21T04:42:20.829Z,17.20
2023-04-21T04:44:48.254Z,15.68
2023-04-21T04:47:15.464Z,15.93
2023-04-21T04:49:42.543Z,15.88
2023-04-21T04:52:09.741Z,17.80
2023-04-21T04:54:36.803Z,14.70
2023-04-21T04:57:03.900Z,16.50
2023-04-21T04:59:31.447Z,19.17
2023-04-21T05:01:58.610Z,18.70
2023-04-21T05:04:26.306Z,16.80
2023-04-21T05:06:53.946Z,18.02
2023-04-21T05:09:21.089Z,16.08
2023-04-21T05:11:48.200Z,17.02
2023-04-21T05:14:15.360Z,15.13
2023-04-21T05:16:44.079Z,15.65
2023-04-21T05:19:11.403Z,17.83
2023-04-21T05:21:38.560Z,17.85
2023-04-21T05:24:05.841Z,15.05
2023-04-21T05:26:32.978Z,14.60
2023-04-21T05:29:00.047Z,15.05
2023-04-21T05:31:27.310Z,14.98
2023-04-21T05:33:54.517Z,16.20
2023-04-21T05:36:21.608Z,19.30
2023-04-21T05:38:48.625Z,17.15
2023-04-21T05:41:16.226Z,16.10
2023-04-21T05:43:43.461Z,17.55
2023-04-21T05:46:14.065Z,15.50
2023-04-21T05:48:41.766Z,17.58
2023-04-21T05:51:14.107Z,14.68
2023-04-21T05:53:41.571Z,17.27
2023-04-21T05:56:12.095Z,16.60
2023-04-21T05:58:39.262Z,17.40
2023-04-21T06:01:09.305Z,14.48
2023-04-21T06:03:36.769Z,17.70
2023-04-21T06:06:06.027Z,19.88
2023-04-21T06:08:33.428Z,15.30
2023-04-21T06:11:00.594Z,12.77
2023-04-21T06:13:27.923Z,16.90
2023-04-21T06:15:55.691Z,16.40
2023-04-21T06:18:24.180Z,14.50
2023-04-21T06:20:52.217Z,11.95
2023-04-21T06:23:19.559Z,12.73
2023-04-21T06:25:46.806Z,14.35
2023-04-21T06:28:14.021Z,11.32
2023-04-21T06:30:41.163Z,13.98
2023-04-21T06:33:08.282Z,13.60
2023-04-21T06:35:35.757Z,12.10
2023-04-21T06:38:02.835Z,13.60
2023-04-21T06:40:31.279Z,9.95
2023-04-21T06:42:58.326Z,14.00
2023-04-21T06:45:25.652Z,12.60
2023-04-21T06:47:52.777Z,14.40
2023-04-21T06:50:19.926Z,15.77
2023-04-21T06:52:46.964Z,11.07
2023-04-21T06:55:14.210Z,12.13
2023-04-21T06:57:41.434Z,12.73
2023-04-21T07:00:09.954Z,13.73
2023-04-21T07:02:37.191Z,16.00
2023-04-21T07:05:04.672Z,12.73
2023-04-21T07:07:31.795Z,15.20
2023-04-21T07:09:58.965Z,9.10
2023-04-21T07:12:26.086Z,14.73
2023-04-21T07:14:53.177Z,13.23
2023-04-21T07:17:20.251Z,13.40
2023-04-21T07:19:47.465Z,12.25
2023-04-21T07:22:14.553Z,15.38
2023-04-21T07:24:41.700Z,14.70
2023-04-21T07:27:09.041Z,15.77
2023-04-21T07:29:37.470Z,13.20
2023-04-21T07:32:04.596Z,11.68
2023-04-21T07:34:31.783Z,12.40
2023-04-21T07:36:58.975Z,15.43
2023-04-21T07:39:26.393Z,10.07
2023-04-21T07:41:54.179Z,12.02
2023-04-21T07:44:21.378Z,12.80
2023-04-21T07:46:48.418Z,8.52
2023-04-21T07:49:15.818Z,10.63
2023-04-21T07:51:42.856Z,9.75
2023-04-21T07:54:10.300Z,9.82
2023-04-21T07:56:37.387Z,11.23
2023-04-21T07:59:04.468Z,11.48
2023-04-21T08:01:31.613Z,13.70
2023-04-21T08:03:58.930Z,11.35
2023-04-21T08:06:26.312Z,11.50
2023-04-21T08:08:55.133Z,8.48
2023-04-21T08:11:22.648Z,12.43
2023-04-21T08:13:50.329Z,8.93
2023-04-21T08:16:17.524Z,9.27
2023-04-21T08:18:44.651Z,8.48
2023-04-21T08:21:11.750Z,10.05
2023-04-21T08:23:38.829Z,8.57
2023-04-21T08:26:06.113Z,9.85
2023-04-21T08:28:33.290Z,9.75
2023-04-21T08:31:00.821Z,10.00
2023-04-21T08:33:28.163Z,8.55
2023-04-21T08:36:03.969Z,9.30
2023-04-21T08:38:35.760Z,7.23
2023-04-21T08:41:04.566Z,11.57
2023-04-21T08:43:31.741Z,11.32
2023-04-21T08:46:00.056Z,8.30
2023-04-21T08:48:29.863Z,10.70
2023-04-21T08:50:57.307Z,7.60
2023-04-21T08:53:24.360Z,8.02
2023-04-21T08:56:07.487Z,8.38
2023-04-21T08:58:38.370Z,10.77
2023-04-21T09:01:06.015Z,7.22
2023-04-21T09:03:33.410Z,6.55
2023-04-21T09:06:02.909Z,6.53
2023-04-21T09:08:30.999Z,7.03
2023-04-21T09:10:59.957Z,9.02
2023-04-21T09:13:32.612Z,7.32
2023-04-21T09:16:04.646Z,6.80
2023-04-21T09:18:36.581Z,5.43
2023-04-21T09:21:11.525Z,9.00
2023-04-21T09:23:48.548Z,7.70
2023-04-21T09:26:17.907Z,10.23
2023-04-21T09:28:47.369Z,7.75
2023-04-21T09:31:16.969Z,9.40
2023-04-21T09:36:24.613Z,8.02
2023-04-21T09:39:12.481Z,10.20
2023-04-21T09:41:41.500Z,8.35
2023-04-21T09:44:08.604Z,9.40
2023-04-21T09:46:37.381Z,10.52
2023-04-21T09:49:06.023Z,6.03
2023-04-21T09:56:53.319Z,9.88
2023-04-21T09:59:25.174Z,8.77
2023-04-21T10:01:54.121Z,9.95
2023-04-21T10:04:24.195Z,7.32
2023-04-21T10:09:21.912Z,7.82
2023-04-21T10:11:49.040Z,6.22
2023-04-21T10:14:16.216Z,7.18
2023-04-21T10:16:43.700Z,9.90
2023-04-21T10:19:28.298Z,8.23
2023-04-21T10:21:59.064Z,11.35
2023-04-21T10:24:30.231Z,7.20
2023-04-21T10:27:02.315Z,8.35
2023-04-21T10:29:47.991Z,5.97
2023-04-21T10:33:05.762Z,6.47
2023-04-21T10:36:01.764Z,6.03
2023-04-21T10:38:44.622Z,4.53
2023-04-21T10:41:37.568Z,8.10
2023-04-21T10:44:10.511Z,6.45
2023-04-21T10:46:40.279Z,5.20
2023-04-21T10:49:12.061Z,6.93
2023-04-21T10:52:00.628Z,6.57
2023-04-21T10:54:31.493Z,7.78
2023-04-21T10:56:59.469Z,7.35
2023-04-21T10:59:29.323Z,7.53
2023-04-21T11:01:57.416Z,6.78
2023-04-21T11:04:25.189Z,5.82
2023-04-21T11:07:12.207Z,7.22
2023-04-21T11:09:41.051Z,4.40
2023-04-21T11:12:13.322Z,7.38
2023-04-21T11:14:42.028Z,5.57
2023-04-21T11:17:14.205Z,7.55
2023-04-21T11:19:41.936Z,6.28
2023-04-21T11:22:09.001Z,4.30
2023-04-21T11:24:36.651Z,6.55
2023-04-21T11:27:04.215Z,5.25
2023-04-21T11:29:31.652Z,7.18
2023-04-21T11:31:59.445Z,5.80
2023-04-21T11:34:27.271Z,11.65
2023-04-21T11:36:54.417Z,5.80
2023-04-21T11:39:22.178Z,5.40
2023-04-21T11:41:51.473Z,4.63
2023-04-21T11:44:54.975Z,8.00
2023-04-21T11:47:25.367Z,5.20
2023-04-21T11:49:59.760Z,6.32
2023-04-21T11:52:29.269Z,5.47
2023-04-21T11:55:00.247Z,4.73
2023-04-21T11:57:28.706Z,6.38
2023-04-21T12:00:02.467Z,5.43
2023-04-21T12:02:32.822Z,8.07
2023-04-21T12:05:06.094Z,4.60
2023-04-21T12:07:43.087Z,4.53
2023-04-21T12:10:12.644Z,7.38
2023-04-21T12:12:41.332Z,7.23
2023-04-21T12:15:10.901Z,6.03
2023-04-21T12:17:49.058Z,8.03
2023-04-21T12:20:18.155Z,5.47
2023-04-21T12:22:46.117Z,5.85
2023-04-21T12:25:14.058Z,17.27
2023-04-21T12:27:57.626Z,6.18
2023-04-21T12:30:24.869Z,7.95
2023-04-21T12:32:52.538Z,6.03
2023-04-21T12:35:19.688Z,5.70
2023-04-21T12:37:46.910Z,5.50
2023-04-21T12:40:14.008Z,4.93
2023-04-21T12:42:41.085Z,6.43
2023-04-21T12:45:08.691Z,5.22
2023-04-21T12:47:37.648Z,8.80
2023-04-21T12:50:05.453Z,5.38
2023-04-21T12:52:32.584Z,6.13
2023-04-21T12:54:59.799Z,5.90
2023-04-21T12:57:27.042Z,8.38
2023-04-21T12:59:54.224Z,3.92
2023-04-21T13:02:21.467Z,10.60
2023-04-21T13:04:48.704Z,4.85
2023-04-21T13:07:16.402Z,10.93
2023-04-21T13:09:43.824Z,7.30
2023-04-21T13:12:10.859Z,7.45
2023-04-21T13:14:38.028Z,8.40
2023-04-21T13:17:05.426Z,8.23
2023-04-21T13:19:32.868Z,7.63
2023-04-21T13:22:00.213Z,5.95
2023-04-21T13:24:27.426Z,6.82
2023-04-21T13:26:54.806Z,9.30
2023-04-21T13:29:21.911Z,7.05
2023-04-21T13:31:48.981Z,7.38
2023-04-21T13:34:16.155Z,7.47
2023-04-21T13:36:43.429Z,5.43
2023-04-21T13:39:11.353Z,6.13
2023-04-21T13:41:38.475Z,5.25
2023-04-21T13:44:05.957Z,5.30
2023-04-21T13:46:33.251Z,7.55
2023-04-21T13:49:00.407Z,6.82
2023-04-21T13:51:27.457Z,4.88
2023-04-21T13:53:54.813Z,4.40
2023-04-21T13:56:22.156Z,4.80
2023-04-21T13:58:49.358Z,6.82
2023-04-21T14:01:17.546Z,5.28
2023-04-21T14:03:46.069Z,5.50
2023-04-21T14:06:13.425Z,6.03
2023-04-21T14:08:40.831Z,8.55
2023-04-21T14:11:08.019Z,6.10
2023-04-21T14:13:39.789Z,6.15
2023-04-21T14:16:12.018Z,7.28
2023-04-21T14:18:44.562Z,7.40
2023-04-21T14:21:12.205Z,8.20
2023-04-21T14:23:39.552Z,8.07
2023-04-21T14:26:06.724Z,6.00
2023-04-21T14:28:33.802Z,7.63
2023-04-21T14:31:00.922Z,7.00
2023-04-21T14:33:29.015Z,6.53
2023-04-21T14:35:56.826Z,7.43
2023-04-21T14:38:24.644Z,5.78
2023-04-21T14:40:54.689Z,9.88
2023-04-21T14:43:22.500Z,10.88
2023-04-21T14:45:49.674Z,5.55
2023-04-21T14:48:16.984Z,6.15
2023-04-21T14:50:44.144Z,7.38
2023-04-21T14:53:11.414Z,6.15
2023-04-21T14:55:38.502Z,7.85
2023-04-21T14:58:05.693Z,5.05
2023-04-21T15:00:34.881Z,5.57
2023-04-21T15:03:02.779Z,8.70
2023-04-21T15:05:30.360Z,7.22
2023-04-21T15:07:57.533Z,6.45
2023-04-21T15:10:24.742Z,6.13
2023-04-21T15:12:51.876Z,8.45
2023-04-21T15:15:19.013Z,5.88
2023-04-21T15:17:46.146Z,8.95
2023-04-21T15:20:13.328Z,5.10
2023-04-21T15:22:41.328Z,9.15
2023-04-21T15:25:08.817Z,8.05
2023-04-21T15:27:36.999Z,7.00
2023-04-21T15:30:04.756Z,8.07
2023-04-21T15:32:31.885Z,7.90
2023-04-21T15:34:59.113Z,5.88
2023-04-21T15:37:26.256Z,8.90
2023-04-21T15:39:53.529Z,5.63
2023-04-21T15:42:20.810Z,9.32
2023-04-21T15:44:48.154Z,6.65
2023-04-21T15:47:18.121Z,6.15
2023-04-21T15:49:45.557Z,9.13
2023-04-21T15:52:12.853Z,7.82
2023-04-21T15:54:41.059Z,4.78
2023-04-21T15:57:08.280Z,5.50
2023-04-21T15:59:35.450Z,7.30
2023-04-21T16:02:03.246Z,7.72
2023-04-21T16:04:30.945Z,7.72
2023-04-21T16:06:58.076Z,6.78
2023-04-21T16:09:25.285Z,5.40
2023-04-21T16:11:52.467Z,5.88
2023-04-21T16:14:19.671Z,5.25
2023-04-21T16:16:46.948Z,6.68
2023-04-21T16:19:14.226Z,8.35
2023-04-21T16:21:42.687Z,5.05
2023-04-21T16:24:10.112Z,4.55
2023-04-21T16:26:37.324Z,6.57
2023-04-21T16:29:04.528Z,8.00
2023-04-21T16:31:31.850Z,6.82
2023-04-21T16:34:00.281Z,12.57
2023-04-21T16:36:32.569Z,7.00
2023-04-21T16:38:59.946Z,7.82
2023-04-21T16:41:27.088Z,6.60
2023-04-21T16:43:54.170Z,8.27
2023-04-21T16:46:21.412Z,6.38
2023-04-21T16:48:48.615Z,9.25
2023-04-21T16:51:15.813Z,6.55
2023-04-21T16:53:42.877Z,5.93
2023-04-21T16:56:10.328Z,5.15
2023-04-21T16:58:37.917Z,7.90
2023-04-21T17:01:07.726Z,8.20
2023-04-21T17:03:35.261Z,7.30
2023-04-21T17:06:05.067Z,7.72
2023-04-21T17:08:32.241Z,12.13
2023-04-21T17:11:00.188Z,7.40
2023-04-21T17:13:27.391Z,7.88
2023-04-21T17:15:54.686Z,9.00
2023-04-21T17:18:21.752Z,10.43
2023-04-21T17:20:48.798Z,6.18
2023-04-21T17:23:15.918Z,9.70
2023-04-21T17:25:43.203Z,9.02
2023-04-21T17:28:10.309Z,11.32
2023-04-21T17:30:37.376Z,8.10
2023-04-21T17:33:16.370Z,7.70
2023-04-21T17:35:59.845Z,6.90
2023-04-21T17:38:29.727Z,7.40
2023-04-21T17:40:56.856Z,10.27
2023-04-21T17:43:24.423Z,10.48
2023-04-21T17:45:52.507Z,9.55
2023-04-21T17:48:21.212Z,12.00
2023-04-21T17:50:48.242Z,12.63
2023-04-21T17:53:15.706Z,12.32
2023-04-21T17:55:42.859Z,11.10
2023-04-21T17:58:12.309Z,10.45
2023-04-21T18:00:39.902Z,9.27
2023-04-21T18:03:07.142Z,13.23
2023-04-21T18:05:34.509Z,10.75
2023-04-21T18:08:02.368Z,9.02
2023-04-21T18:10:30.077Z,9.88
2023-04-21T18:12:57.721Z,14.45
2023-04-21T18:15:25.031Z,9.43
2023-04-21T18:17:53.382Z,12.93
2023-04-21T18:20:20.763Z,12.88
2023-04-21T18:22:49.088Z,10.98
2023-04-21T18:25:22.083Z,12.70
2023-04-21T18:27:54.533Z,24.67
2023-04-21T18:30:21.670Z,13.45
2023-04-21T18:32:48.819Z,12.27
2023-04-21T18:35:15.922Z,10.30
2023-04-21T18:37:43.439Z,11.55
2023-04-21T18:40:10.919Z,9.52
2023-04-21T18:42:39.396Z,10.75
2023-04-21T18:45:07.349Z,7.68
2023-04-21T18:47:35.071Z,8.32
2023-04-21T18:50:02.166Z,8.63
2023-04-21T18:52:29.211Z,7.70
2023-04-21T18:54:56.468Z,10.55
2023-04-21T18:57:23.585Z,6.53
2023-04-21T18:59:50.598Z,7.78
2023-04-21T19:02:18.100Z,7.72
2023-04-21T19:04:45.790Z,10.98
2023-04-21T19:07:15.769Z,11.82
2023-04-21T19:09:44.428Z,8.15
2023-04-21T19:12:11.710Z,10.65
2023-04-21T19:14:46.503Z,7.68
2023-04-21T19:17:14.688Z,9.90
2023-04-21T19:19:42.525Z,11.75
2023-04-21T19:22:09.681Z,10.70
2023-04-21T19:24:36.913Z,6.95
2023-04-21T19:27:06.252Z,12.20
2023-04-21T19:29:33.411Z,12.50
2023-04-21T19:32:00.610Z,9.82
2023-04-21T19:34:27.822Z,9.93
2023-04-21T19:36:54.918Z,8.38
2023-04-21T19:39:22.055Z,9.30
2023-04-21T19:41:49.181Z,8.50
2023-04-21T19:44:16.392Z,12.32
2023-04-21T19:46:43.804Z,11.05
2023-04-21T19:49:14.210Z,12.80
2023-04-21T19:54:11.926Z,12.30
2023-04-21T19:56:40.780Z,11.52
2023-04-21T19:59:08.279Z,11.38
2023-04-21T20:01:35.639Z,14.23
2023-04-21T20:04:03.941Z,11.38
2023-04-21T20:06:32.181Z,15.52
2023-04-21T20:08:59.458Z,14.15
2023-04-21T20:11:28.927Z,16.42
2023-04-21T20:13:56.274Z,14.90
2023-04-21T20:16:24.052Z,13.35
2023-04-21T20:18:51.235Z,15.35
2023-04-21T20:21:18.330Z,11.90
2023-04-21T20:23:45.398Z,12.43
2023-04-21T20:26:12.706Z,11.55
2023-04-21T20:28:39.827Z,12.15
2023-04-21T20:31:07.286Z,10.13
2023-04-21T20:33:34.577Z,14.75
2023-04-21T20:36:07.404Z,10.15
2023-04-21T20:38:35.571Z,10.27
2023-04-21T20:41:03.473Z,10.80
2023-04-21T20:43:33.388Z,12.00
2023-04-21T20:46:04.478Z,12.32
2023-04-21T20:48:31.577Z,11.88
2023-04-21T20:50:58.628Z,11.02
2023-04-21T20:53:26.336Z,9.02
2023-04-21T20:55:53.504Z,9.98
2023-04-21T20:58:20.631Z,9.75
2023-04-21T21:00:47.817Z,7.95
2023-04-21T21:03:15.146Z,8.32
2023-04-21T21:05:42.533Z,10.13
2023-04-21T21:08:10.143Z,9.25
2023-04-21T21:10:37.290Z,9.50
2023-04-21T21:13:04.354Z,8.52
2023-04-21T21:15:31.500Z,8.88
2023-04-21T21:17:58.894Z,8.75
2023-04-21T21:20:26.410Z,9.93
2023-04-21T21:22:53.542Z,7.88
2023-04-21T21:25:20.798Z,9.93
2023-04-21T21:27:48.025Z,11.45
2023-04-21T21:30:15.315Z,9.85
2023-04-21T21:32:42.404Z,11.25
2023-04-21T21:35:10.476Z,7.93
2023-04-21T21:37:38.236Z,11.02
2023-04-21T21:40:06.435Z,9.80
2023-04-21T21:42:33.495Z,10.65
2023-04-21T21:45:01.124Z,11.20
2023-04-21T21:47:28.492Z,10.18
2023-04-21T21:49:57.938Z,8.15
2023-04-21T21:52:25.310Z,9.35
2023-04-21T21:54:52.865Z,12.40
2023-04-21T21:57:20.011Z,8.70
2023-04-21T21:59:48.556Z,7.50
2023-04-21T22:02:16.086Z,8.70
2023-04-21T22:04:44.008Z,10.57
2023-04-21T22:07:11.252Z,10.35
2023-04-21T22:09:40.201Z,11.95
2023-04-21T22:12:07.665Z,10.00
2023-04-21T22:14:35.370Z,6.22
2023-04-21T22:17:03.046Z,7.97
2023-04-21T22:19:31.292Z,7.63
2023-04-21T22:21:58.482Z,7.45
2023-04-21T22:24:25.851Z,9.10
2023-04-21T22:26:52.957Z,8.40
2023-04-21T22:29:20.044Z,6.75
2023-04-21T22:31:47.805Z,9.25
2023-04-21T22:34:19.850Z,9.32
2023-04-21T22:36:46.937Z,11.65
2023-04-21T22:39:14.008Z,8.98
2023-04-21T22:41:41.318Z,9.13
2023-04-21T22:44:08.823Z,11.13
2023-04-21T22:46:36.623Z,10.43
2023-04-21T22:49:04.086Z,7.07
2023-04-21T22:51:32.757Z,10.43
2023-04-21T22:54:00.650Z,10.90
2023-04-21T22:56:28.704Z,9.50
2023-04-21T22:58:55.924Z,11.90
2023-04-21T23:01:23.312Z,7.82
2023-04-21T23:03:51.020Z,8.60
2023-04-21T23:06:18.260Z,9.63
2023-04-21T23:08:45.399Z,7.82
2023-04-21T23:11:12.912Z,11.55
2023-04-21T23:13:40.189Z,8.68
2023-04-21T23:16:07.316Z,9.80
2023-04-21T23:18:34.383Z,9.98
2023-04-21T23:21:01.688Z,9.18
2023-04-21T23:23:28.786Z,9.57
2023-04-21T23:25:56.078Z,9.65
2023-04-21T23:28:24.432Z,8.75
2023-04-21T23:30:51.567Z,10.13
2023-04-21T23:33:18.803Z,8.43
2023-04-21T23:35:45.930Z,9.70
2023-04-21T23:38:12.998Z,9.70
2023-04-21T23:40:40.131Z,8.50
2023-04-21T23:43:07.808Z,7.80
2023-04-21T23:45:35.106Z,8.48
2023-04-21T23:48:02.327Z,7.85
2023-04-21T23:50:29.520Z,7.57
2023-04-21T23:52:56.673Z,8.68
2023-04-21T23:55:23.782Z,8.00
2023-04-21T23:57:50.805Z,9.68
